Rechercher aéroport 
image banner adimage banner adimage banner ad
image banner ad

L19 - Wasco-Kern County

Situé à Wasco, United States

ICAO - L19, IATA -

Données fournies par Airmate  

Information générale

Coordonnées: N35°37'11" W119°21'13"
Élévation : 312 feet MSL.
Variation magnétique : 15° East
Voir autres Aéroports à California

Données opérationnelles

Special qualification required
Heure actuelle UTC:
Heure actuelle locale:
Météo à : KDLO - Delano Muni ( 18 km )
METAR: KDLO 251335Z AUTO 00000KT 10SM CLR 19/08 A2990 RMK AO2 T01870080
Voir NOTAMs / SUP AIP / TFR affectant cet aéroport [VIEW]
Fréquences de communication: [VIEW]

Pistes:

Identifiant RWYQFULongueur (ft)Largeur (ft)SurfaceLDA (ft)
12135°338060ASPH
30315°338060ASPH

Coordonnées de l'aéroport

Adresse: Wasco United States

Vue satellite de L19